Oluja — V7QE8 — position and weather

sailwx.info

Track history (hours):
 
Tides and Currents Weather Stations Pressure Air Temp Water Temp Dewpoint Dewpoint Depression Visibility Wind Speed Wind Dir Waves Ship Positions

Oluja

Last reported at 2017-May-08 22:33 UTC. Time now 2017-May-27 09:54 UTC.
Position N 40°01' E 026°07'.
Warning: this ship's position is 18 days out of date.

Length 188 m; draft 10.6 m.

Type: Cargo ship. MMSI: 538003345.

Date/timePositionNaut miles runAvg speedWind from/ knotsBaromVisibWave heightAir tempDewpointWater temp
2017-May-08 22:33N 40°01' E 026°07'  
2017-May-03 10:44N 40°44' E 029°24'1 5.7
2017-May-03 10:30N 40°44' E 029°22'2 4.2
2017-May-03 10:01N 40°43' E 029°20'510.3
2017-May-03 09:31N 40°43' E 029°13'812.4
2017-May-03 08:52N 40°43' E 029°02'  
2017-Apr-30 14:00N 36°17' E 015°09'612.9
2017-Apr-30 13:30N 36°17' E 015°01'1413.1
2017-Apr-30 12:26N 36°17' E 014°44'613.1
2017-Apr-30 12:00N 36°17' E 014°36'612.9
2017-Apr-30 11:30N 36°17' E 014°29'713.3
2017-Apr-30 11:00N 36°20' E 014°21'713.5
2017-Apr-30 10:30N 36°23' E 014°13'713.5
2017-Apr-30 10:00N 36°25' E 014°05'713.1
2017-Apr-30 09:30N 36°27' E 013°58'813.0
2017-Apr-30 08:55N 36°30' E 013°49'512.8
2017-Apr-30 08:30N 36°32' E 013°43'612.5
2017-Apr-30 08:00N 36°35' E 013°36'612.4
2017-Apr-30 07:30N 36°37' E 013°29'612.5
2017-Apr-30 07:00N 36°40' E 013°21'612.5
2017-Apr-30 06:30N 36°42' E 013°14'612.7
2017-Apr-30 06:00N 36°44' E 013°07'  
Track history (hours):
 
Tides and Currents Weather Stations Pressure Air Temp Water Temp Dewpoint Dewpoint Depression Visibility Wind Speed Wind Dir Waves Ship Positions

Oluja

Last reported at 2017-May-08 22:33 UTC. Time now 2017-May-27 09:54 UTC.
Position N 40°01' E 026°07'.
Warning: this ship's position is 18 days out of date.

Length 188 m; draft 10.6 m.

Type: Cargo ship. MMSI: 538003345.

Date/timePositionNaut miles runAvg speedWind from/ knotsBaromVisibWave heightAir tempDewpointWater temp
2017-May-08 22:33N 40°01' E 026°07'  
2017-May-03 10:44N 40°44' E 029°24'1 5.7
2017-May-03 10:30N 40°44' E 029°22'2 4.2
2017-May-03 10:01N 40°43' E 029°20'510.3
2017-May-03 09:31N 40°43' E 029°13'812.4
2017-May-03 08:52N 40°43' E 029°02'  
2017-Apr-30 14:00N 36°17' E 015°09'612.9
2017-Apr-30 13:30N 36°17' E 015°01'1413.1
2017-Apr-30 12:26N 36°17' E 014°44'613.1
2017-Apr-30 12:00N 36°17' E 014°36'612.9
2017-Apr-30 11:30N 36°17' E 014°29'713.3
2017-Apr-30 11:00N 36°20' E 014°21'713.5
2017-Apr-30 10:30N 36°23' E 014°13'713.5
2017-Apr-30 10:00N 36°25' E 014°05'713.1
2017-Apr-30 09:30N 36°27' E 013°58'813.0
2017-Apr-30 08:55N 36°30' E 013°49'512.8
2017-Apr-30 08:30N 36°32' E 013°43'612.5
2017-Apr-30 08:00N 36°35' E 013°36'612.4
2017-Apr-30 07:30N 36°37' E 013°29'612.5
2017-Apr-30 07:00N 36°40' E 013°21'612.5
2017-Apr-30 06:30N 36°42' E 013°14'612.7
2017-Apr-30 06:00N 36°44' E 013°07'  

Dump ship's entire track history